sensor_id;sensor_type;location;lat;lon;timestamp;temperature;humidity
20284;DHT22;10301;50.832;4.080;2024-03-02T00:00:19;6.80;99.90
20284;DHT22;10301;50.832;4.080;2024-03-02T00:02:49;6.90;99.90
20284;DHT22;10301;50.832;4.080;2024-03-02T00:05:21;6.80;99.90
20284;DHT22;10301;50.832;4.080;2024-03-02T00:07:55;6.70;99.90
20284;DHT22;10301;50.832;4.080;2024-03-02T00:10:31;6.70;99.90
20284;DHT22;10301;50.832;4.080;2024-03-02T00:13:02;6.70;99.90
20284;DHT22;10301;50.832;4.080;2024-03-02T00:18:11;6.70;99.90
20284;DHT22;10301;50.832;4.080;2024-03-02T00:20:38;6.80;99.90
20284;DHT22;10301;50.832;4.080;2024-03-02T00:23:05;6.80;99.90
20284;DHT22;10301;50.832;4.080;2024-03-02T00:25:39;6.70;99.90
20284;DHT22;10301;50.832;4.080;2024-03-02T00:28:25;6.80;99.90
20284;DHT22;10301;50.832;4.080;2024-03-02T00:33:27;6.80;99.90
20284;DHT22;10301;50.832;4.080;2024-03-02T00:35:53;6.70;99.90
20284;DHT22;10301;50.832;4.080;2024-03-02T00:38:19;6.80;99.90
20284;DHT22;10301;50.832;4.080;2024-03-02T00:40:46;6.80;99.90
20284;DHT22;10301;50.832;4.080;2024-03-02T00:43:37;6.70;99.90
20284;DHT22;10301;50.832;4.080;2024-03-02T00:46:04;6.70;99.90
20284;DHT22;10301;50.832;4.080;2024-03-02T00:48:30;6.70;99.90
20284;DHT22;10301;50.832;4.080;2024-03-02T00:50:57;6.70;99.90
20284;DHT22;10301;50.832;4.080;2024-03-02T00:53:24;6.60;99.90
20284;DHT22;10301;50.832;4.080;2024-03-02T00:55:52;6.70;99.90
20284;DHT22;10301;50.832;4.080;2024-03-02T00:58:17;6.70;99.90
20284;DHT22;10301;50.832;4.080;2024-03-02T01:00:43;6.70;99.90
20284;DHT22;10301;50.832;4.080;2024-03-02T01:03:09;6.80;99.90
20284;DHT22;10301;50.832;4.080;2024-03-02T01:05:36;6.80;99.90
20284;DHT22;10301;50.832;4.080;2024-03-02T01:08:02;6.80;99.90
20284;DHT22;10301;50.832;4.080;2024-03-02T01:10:28;6.70;99.90
20284;DHT22;10301;50.832;4.080;2024-03-02T01:12:53;6.70;99.90
20284;DHT22;10301;50.832;4.080;2024-03-02T01:15:19;6.70;99.90
20284;DHT22;10301;50.832;4.080;2024-03-02T01:17:45;6.60;99.90
20284;DHT22;10301;50.832;4.080;2024-03-02T01:20:11;6.60;99.90
20284;DHT22;10301;50.832;4.080;2024-03-02T01:22:37;6.60;99.90
20284;DHT22;10301;50.832;4.080;2024-03-02T01:25:03;6.70;99.90
20284;DHT22;10301;50.832;4.080;2024-03-02T01:27:28;6.80;99.90
20284;DHT22;10301;50.832;4.080;2024-03-02T01:29:54;6.80;99.90
20284;DHT22;10301;50.832;4.080;2024-03-02T01:32:20;6.70;99.90
20284;DHT22;10301;50.832;4.080;2024-03-02T01:34:46;6.70;99.90
20284;DHT22;10301;50.832;4.080;2024-03-02T01:37:11;6.70;99.90
20284;DHT22;10301;50.832;4.080;2024-03-02T01:39:37;6.80;99.90
20284;DHT22;10301;50.832;4.080;2024-03-02T01:42:03;6.80;99.90
20284;DHT22;10301;50.832;4.080;2024-03-02T01:44:28;6.80;99.90
20284;DHT22;10301;50.832;4.080;2024-03-02T01:46:54;6.70;99.90
20284;DHT22;10301;50.832;4.080;2024-03-02T01:49:20;6.60;99.90
20284;DHT22;10301;50.832;4.080;2024-03-02T01:51:45;6.50;99.90
20284;DHT22;10301;50.832;4.080;2024-03-02T01:54:11;6.50;99.90
20284;DHT22;10301;50.832;4.080;2024-03-02T01:56:37;6.50;99.90
20284;DHT22;10301;50.832;4.080;2024-03-02T01:59:03;6.50;99.90
20284;DHT22;10301;50.832;4.080;2024-03-02T02:01:28;6.70;99.90
20284;DHT22;10301;50.832;4.080;2024-03-02T02:03:54;6.70;99.90
20284;DHT22;10301;50.832;4.080;2024-03-02T02:06:21;6.70;99.90
20284;DHT22;10301;50.832;4.080;2024-03-02T02:08:47;6.80;99.90
20284;DHT22;10301;50.832;4.080;2024-03-02T02:11:15;6.80;99.90
20284;DHT22;10301;50.832;4.080;2024-03-02T02:13:41;6.80;99.90
20284;DHT22;10301;50.832;4.080;2024-03-02T02:16:07;6.80;99.90
20284;DHT22;10301;50.832;4.080;2024-03-02T02:18:33;6.80;99.90
20284;DHT22;10301;50.832;4.080;2024-03-02T02:20:59;6.70;99.90
20284;DHT22;10301;50.832;4.080;2024-03-02T02:23:25;6.60;99.90
20284;DHT22;10301;50.832;4.080;2024-03-02T02:25:50;6.60;99.90
20284;DHT22;10301;50.832;4.080;2024-03-02T02:28:16;6.50;99.90
20284;DHT22;10301;50.832;4.080;2024-03-02T02:30:42;6.60;99.90
20284;DHT22;10301;50.832;4.080;2024-03-02T02:33:08;6.60;99.90
20284;DHT22;10301;50.832;4.080;2024-03-02T02:35:34;6.70;99.90
20284;DHT22;10301;50.832;4.080;2024-03-02T02:38:00;6.70;99.90
20284;DHT22;10301;50.832;4.080;2024-03-02T02:40:27;6.80;99.90
20284;DHT22;10301;50.832;4.080;2024-03-02T02:42:58;6.80;99.90
20284;DHT22;10301;50.832;4.080;2024-03-02T02:45:27;6.90;99.90
20284;DHT22;10301;50.832;4.080;2024-03-02T02:47:52;6.80;99.90
20284;DHT22;10301;50.832;4.080;2024-03-02T02:50:18;6.90;99.90
20284;DHT22;10301;50.832;4.080;2024-03-02T02:52:44;7.00;99.90
20284;DHT22;10301;50.832;4.080;2024-03-02T02:55:11;7.10;99.90
20284;DHT22;10301;50.832;4.080;2024-03-02T02:57:39;7.00;99.90
20284;DHT22;10301;50.832;4.080;2024-03-02T03:02:39;7.00;99.90
20284;DHT22;10301;50.832;4.080;2024-03-02T03:05:07;6.80;99.90
20284;DHT22;10301;50.832;4.080;2024-03-02T03:07:33;6.70;99.90
20284;DHT22;10301;50.832;4.080;2024-03-02T03:10:03;6.70;99.90
20284;DHT22;10301;50.832;4.080;2024-03-02T03:12:30;6.70;99.90
20284;DHT22;10301;50.832;4.080;2024-03-02T03:14:56;6.70;99.90
20284;DHT22;10301;50.832;4.080;2024-03-02T03:17:22;6.60;99.90
20284;DHT22;10301;50.832;4.080;2024-03-02T03:19:49;6.60;99.90
20284;DHT22;10301;50.832;4.080;2024-03-02T03:22:14;6.70;99.90
20284;DHT22;10301;50.832;4.080;2024-03-02T03:24:40;6.80;99.90
20284;DHT22;10301;50.832;4.080;2024-03-02T03:27:06;6.80;99.90
20284;DHT22;10301;50.832;4.080;2024-03-02T03:29:31;6.90;99.90
20284;DHT22;10301;50.832;4.080;2024-03-02T03:31:57;6.80;99.90
20284;DHT22;10301;50.832;4.080;2024-03-02T03:34:22;6.80;99.90
20284;DHT22;10301;50.832;4.080;2024-03-02T03:36:48;6.80;99.90
20284;DHT22;10301;50.832;4.080;2024-03-02T03:39:14;6.80;99.90
20284;DHT22;10301;50.832;4.080;2024-03-02T03:41:40;6.80;99.90
20284;DHT22;10301;50.832;4.080;2024-03-02T03:44:06;6.80;99.90
20284;DHT22;10301;50.832;4.080;2024-03-02T03:46:31;7.10;99.90
20284;DHT22;10301;50.832;4.080;2024-03-02T03:48:57;7.30;99.90
20284;DHT22;10301;50.832;4.080;2024-03-02T03:51:23;7.20;99.90
20284;DHT22;10301;50.832;4.080;2024-03-02T03:53:48;7.00;99.90
20284;DHT22;10301;50.832;4.080;2024-03-02T03:56:14;7.00;99.90
20284;DHT22;10301;50.832;4.080;2024-03-02T03:58:40;7.00;99.90
20284;DHT22;10301;50.832;4.080;2024-03-02T04:01:05;7.00;99.90
20284;DHT22;10301;50.832;4.080;2024-03-02T04:03:31;7.20;99.90
20284;DHT22;10301;50.832;4.080;2024-03-02T04:05:57;7.20;99.90
20284;DHT22;10301;50.832;4.080;2024-03-02T04:08:22;7.00;99.90
20284;DHT22;10301;50.832;4.080;2024-03-02T04:10:48;6.90;99.90
20284;DHT22;10301;50.832;4.080;2024-03-02T04:13:14;6.90;99.90
20284;DHT22;10301;50.832;4.080;2024-03-02T04:15:40;6.90;99.90
20284;DHT22;10301;50.832;4.080;2024-03-02T04:18:08;7.10;99.90
20284;DHT22;10301;50.832;4.080;2024-03-02T04:20:34;7.10;99.90
20284;DHT22;10301;50.832;4.080;2024-03-02T04:22:59;7.10;99.90
20284;DHT22;10301;50.832;4.080;2024-03-02T04:25:25;7.10;99.90
20284;DHT22;10301;50.832;4.080;2024-03-02T04:27:50;7.10;99.90
20284;DHT22;10301;50.832;4.080;2024-03-02T04:30:16;7.00;99.90
20284;DHT22;10301;50.832;4.080;2024-03-02T04:32:42;6.90;99.90
20284;DHT22;10301;50.832;4.080;2024-03-02T04:35:11;6.90;99.90
20284;DHT22;10301;50.832;4.080;2024-03-02T04:37:38;6.80;99.90
20284;DHT22;10301;50.832;4.080;2024-03-02T04:40:04;6.70;99.90
20284;DHT22;10301;50.832;4.080;2024-03-02T04:42:34;6.60;99.90
20284;DHT22;10301;50.832;4.080;2024-03-02T04:44:59;6.50;99.90
20284;DHT22;10301;50.832;4.080;2024-03-02T04:47:25;6.60;99.90
20284;DHT22;10301;50.832;4.080;2024-03-02T04:49:51;6.50;99.90
20284;DHT22;10301;50.832;4.080;2024-03-02T04:52:16;6.40;99.90
20284;DHT22;10301;50.832;4.080;2024-03-02T04:54:42;6.20;99.90
20284;DHT22;10301;50.832;4.080;2024-03-02T04:57:44;6.20;99.90
20284;DHT22;10301;50.832;4.080;2024-03-02T05:00:10;6.10;99.90
20284;DHT22;10301;50.832;4.080;2024-03-02T05:02:36;6.10;99.90
20284;DHT22;10301;50.832;4.080;2024-03-02T05:05:01;6.10;99.90
20284;DHT22;10301;50.832;4.080;2024-03-02T05:07:28;6.10;99.90
20284;DHT22;10301;50.832;4.080;2024-03-02T05:09:54;6.10;99.90
20284;DHT22;10301;50.832;4.080;2024-03-02T05:12:19;6.10;99.90
20284;DHT22;10301;50.832;4.080;2024-03-02T05:15:04;6.10;99.90
20284;DHT22;10301;50.832;4.080;2024-03-02T05:17:29;6.00;99.90
20284;DHT22;10301;50.832;4.080;2024-03-02T05:19:55;5.90;99.90
20284;DHT22;10301;50.832;4.080;2024-03-02T05:22:21;5.90;99.90
20284;DHT22;10301;50.832;4.080;2024-03-02T05:24:46;5.90;99.90
20284;DHT22;10301;50.832;4.080;2024-03-02T05:27:12;5.80;99.90
20284;DHT22;10301;50.832;4.080;2024-03-02T05:29:38;5.80;99.90
20284;DHT22;10301;50.832;4.080;2024-03-02T05:32:03;5.90;99.90
20284;DHT22;10301;50.832;4.080;2024-03-02T05:34:29;5.90;99.90
20284;DHT22;10301;50.832;4.080;2024-03-02T05:36:56;5.80;99.90
20284;DHT22;10301;50.832;4.080;2024-03-02T05:39:23;5.70;99.90
20284;DHT22;10301;50.832;4.080;2024-03-02T05:41:48;5.60;99.90
20284;DHT22;10301;50.832;4.080;2024-03-02T05:44:14;5.60;99.90
20284;DHT22;10301;50.832;4.080;2024-03-02T05:46:41;5.50;99.90
20284;DHT22;10301;50.832;4.080;2024-03-02T05:49:07;5.50;99.90
20284;DHT22;10301;50.832;4.080;2024-03-02T05:51:33;5.70;99.90
20284;DHT22;10301;50.832;4.080;2024-03-02T05:53:59;5.70;99.90
20284;DHT22;10301;50.832;4.080;2024-03-02T05:56:24;5.90;99.90
20284;DHT22;10301;50.832;4.080;2024-03-02T05:58:50;5.90;99.90
20284;DHT22;10301;50.832;4.080;2024-03-02T06:01:34;5.90;99.90
20284;DHT22;10301;50.832;4.080;2024-03-02T06:04:00;5.80;99.90
20284;DHT22;10301;50.832;4.080;2024-03-02T06:06:25;6.00;99.90
20284;DHT22;10301;50.832;4.080;2024-03-02T06:08:52;5.80;99.90
20284;DHT22;10301;50.832;4.080;2024-03-02T06:11:19;5.90;99.90
20284;DHT22;10301;50.832;4.080;2024-03-02T06:13:45;6.00;99.90
20284;DHT22;10301;50.832;4.080;2024-03-02T06:16:11;6.00;99.90
20284;DHT22;10301;50.832;4.080;2024-03-02T06:18:37;5.90;99.90
20284;DHT22;10301;50.832;4.080;2024-03-02T06:21:03;5.90;99.90
20284;DHT22;10301;50.832;4.080;2024-03-02T06:23:28;5.80;99.90
20284;DHT22;10301;50.832;4.080;2024-03-02T06:25:54;5.70;99.90
20284;DHT22;10301;50.832;4.080;2024-03-02T06:28:20;5.60;99.90
20284;DHT22;10301;50.832;4.080;2024-03-02T06:30:46;5.70;99.90
20284;DHT22;10301;50.832;4.080;2024-03-02T06:33:12;5.60;99.90
20284;DHT22;10301;50.832;4.080;2024-03-02T06:35:37;5.50;99.90
20284;DHT22;10301;50.832;4.080;2024-03-02T06:38:03;5.60;99.90
20284;DHT22;10301;50.832;4.080;2024-03-02T06:40:29;5.60;99.90
20284;DHT22;10301;50.832;4.080;2024-03-02T06:42:55;5.60;99.90
20284;DHT22;10301;50.832;4.080;2024-03-02T06:45:20;5.60;99.90
20284;DHT22;10301;50.832;4.080;2024-03-02T06:47:46;5.60;99.90
20284;DHT22;10301;50.832;4.080;2024-03-02T06:50:12;5.50;99.90
20284;DHT22;10301;50.832;4.080;2024-03-02T06:52:38;5.50;99.90
20284;DHT22;10301;50.832;4.080;2024-03-02T06:55:04;5.50;99.90
20284;DHT22;10301;50.832;4.080;2024-03-02T06:57:31;5.60;99.90
20284;DHT22;10301;50.832;4.080;2024-03-02T06:59:56;5.90;99.90
20284;DHT22;10301;50.832;4.080;2024-03-02T07:02:24;5.80;99.90
20284;DHT22;10301;50.832;4.080;2024-03-02T07:04:52;5.70;99.90
20284;DHT22;10301;50.832;4.080;2024-03-02T07:07:18;5.70;99.90
20284;DHT22;10301;50.832;4.080;2024-03-02T07:09:44;5.80;99.90
20284;DHT22;10301;50.832;4.080;2024-03-02T07:12:09;5.70;99.90
20284;DHT22;10301;50.832;4.080;2024-03-02T07:14:35;5.70;99.90
20284;DHT22;10301;50.832;4.080;2024-03-02T07:17:31;5.80;99.90
20284;DHT22;10301;50.832;4.080;2024-03-02T07:19:57;5.90;99.90
20284;DHT22;10301;50.832;4.080;2024-03-02T07:22:23;5.90;99.90
20284;DHT22;10301;50.832;4.080;2024-03-02T07:24:49;6.10;99.90
20284;DHT22;10301;50.832;4.080;2024-03-02T07:27:15;6.20;99.90
20284;DHT22;10301;50.832;4.080;2024-03-02T07:29:41;6.30;99.90
20284;DHT22;10301;50.832;4.080;2024-03-02T07:32:08;6.30;99.90
20284;DHT22;10301;50.832;4.080;2024-03-02T07:34:34;6.40;99.90
20284;DHT22;10301;50.832;4.080;2024-03-02T07:37:00;6.30;99.90
20284;DHT22;10301;50.832;4.080;2024-03-02T07:39:26;6.40;99.90
20284;DHT22;10301;50.832;4.080;2024-03-02T07:41:52;6.50;99.90
20284;DHT22;10301;50.832;4.080;2024-03-02T07:44:17;6.50;99.90
20284;DHT22;10301;50.832;4.080;2024-03-02T07:46:45;6.50;99.90
20284;DHT22;10301;50.832;4.080;2024-03-02T07:49:21;6.60;99.90
20284;DHT22;10301;50.832;4.080;2024-03-02T07:51:46;6.60;99.90
20284;DHT22;10301;50.832;4.080;2024-03-02T07:54:12;6.80;99.90
20284;DHT22;10301;50.832;4.080;2024-03-02T07:56:38;6.90;99.90
20284;DHT22;10301;50.832;4.080;2024-03-02T07:59:04;6.90;99.90
20284;DHT22;10301;50.832;4.080;2024-03-02T08:01:31;7.00;99.90
20284;DHT22;10301;50.832;4.080;2024-03-02T08:03:57;7.10;99.90
20284;DHT22;10301;50.832;4.080;2024-03-02T08:06:25;7.10;99.90
20284;DHT22;10301;50.832;4.080;2024-03-02T08:08:57;7.20;99.90
20284;DHT22;10301;50.832;4.080;2024-03-02T08:11:23;7.20;99.90
20284;DHT22;10301;50.832;4.080;2024-03-02T08:13:48;7.30;99.90
20284;DHT22;10301;50.832;4.080;2024-03-02T08:16:15;7.40;99.90
20284;DHT22;10301;50.832;4.080;2024-03-02T08:18:42;7.50;99.90
20284;DHT22;10301;50.832;4.080;2024-03-02T08:21:07;7.70;99.90
20284;DHT22;10301;50.832;4.080;2024-03-02T08:23:34;7.70;99.90
20284;DHT22;10301;50.832;4.080;2024-03-02T08:26:00;7.70;99.90
20284;DHT22;10301;50.832;4.080;2024-03-02T08:28:26;7.80;99.90
20284;DHT22;10301;50.832;4.080;2024-03-02T08:30:52;7.70;99.90
20284;DHT22;10301;50.832;4.080;2024-03-02T08:33:17;7.80;99.90
20284;DHT22;10301;50.832;4.080;2024-03-02T08:35:43;7.90;99.90
20284;DHT22;10301;50.832;4.080;2024-03-02T08:38:09;8.00;99.90
20284;DHT22;10301;50.832;4.080;2024-03-02T08:40:35;8.30;99.90
20284;DHT22;10301;50.832;4.080;2024-03-02T08:43:01;8.30;99.90
20284;DHT22;10301;50.832;4.080;2024-03-02T08:45:26;8.40;99.90
20284;DHT22;10301;50.832;4.080;2024-03-02T08:47:52;8.70;99.90
20284;DHT22;10301;50.832;4.080;2024-03-02T08:50:18;8.90;99.50
20284;DHT22;10301;50.832;4.080;2024-03-02T08:52:44;8.90;99.60
20284;DHT22;10301;50.832;4.080;2024-03-02T08:55:09;8.90;97.40
20284;DHT22;10301;50.832;4.080;2024-03-02T08:57:37;8.70;94.20
20284;DHT22;10301;50.832;4.080;2024-03-02T09:00:03;8.60;97.40
20284;DHT22;10301;50.832;4.080;2024-03-02T09:02:30;8.60;97.50
20284;DHT22;10301;50.832;4.080;2024-03-02T09:04:56;8.60;98.60
20284;DHT22;10301;50.832;4.080;2024-03-02T09:07:22;8.80;98.60
20284;DHT22;10301;50.832;4.080;2024-03-02T09:09:47;9.00;96.40
20284;DHT22;10301;50.832;4.080;2024-03-02T09:12:13;9.10;93.80
20284;DHT22;10301;50.832;4.080;2024-03-02T09:14:39;9.30;92.60
20284;DHT22;10301;50.832;4.080;2024-03-02T09:17:05;9.50;92.80
20284;DHT22;10301;50.832;4.080;2024-03-02T09:19:31;9.70;84.20
20284;DHT22;10301;50.832;4.080;2024-03-02T09:21:57;9.70;83.90
20284;DHT22;10301;50.832;4.080;2024-03-02T09:24:24;9.80;73.80
20284;DHT22;10301;50.832;4.080;2024-03-02T09:26:50;9.70;68.40
20284;DHT22;10301;50.832;4.080;2024-03-02T09:29:15;9.60;79.50
20284;DHT22;10301;50.832;4.080;2024-03-02T09:31:41;9.70;79.60
20284;DHT22;10301;50.832;4.080;2024-03-02T09:34:07;9.80;75.20
20284;DHT22;10301;50.832;4.080;2024-03-02T09:36:33;10.00;77.60
20284;DHT22;10301;50.832;4.080;2024-03-02T09:38:59;10.00;79.80
20284;DHT22;10301;50.832;4.080;2024-03-02T09:41:24;10.00;76.40
20284;DHT22;10301;50.832;4.080;2024-03-02T09:43:50;10.10;74.70
20284;DHT22;10301;50.832;4.080;2024-03-02T09:46:16;10.20;68.30
20284;DHT22;10301;50.832;4.080;2024-03-02T09:48:44;10.30;69.40
20284;DHT22;10301;50.832;4.080;2024-03-02T09:51:11;10.20;66.40
20284;DHT22;10301;50.832;4.080;2024-03-02T09:53:37;10.30;72.10
20284;DHT22;10301;50.832;4.080;2024-03-02T09:56:03;10.20;60.00
20284;DHT22;10301;50.832;4.080;2024-03-02T09:58:30;10.30;66.20
20284;DHT22;10301;50.832;4.080;2024-03-02T10:00:56;10.50;63.40
20284;DHT22;10301;50.832;4.080;2024-03-02T10:03:23;10.70;59.90
20284;DHT22;10301;50.832;4.080;2024-03-02T10:05:52;10.60;53.10
20284;DHT22;10301;50.832;4.080;2024-03-02T10:08:18;10.50;56.60
20284;DHT22;10301;50.832;4.080;2024-03-02T10:10:43;10.70;66.70
20284;DHT22;10301;50.832;4.080;2024-03-02T10:13:10;11.00;59.40
20284;DHT22;10301;50.832;4.080;2024-03-02T10:15:37;11.20;40.00
20284;DHT22;10301;50.832;4.080;2024-03-02T10:18:04;11.50;43.60
20284;DHT22;10301;50.832;4.080;2024-03-02T10:20:30;11.50;40.10
20284;DHT22;10301;50.832;4.080;2024-03-02T10:22:56;11.10;52.10
20284;DHT22;10301;50.832;4.080;2024-03-02T10:25:34;11.40;52.80
20284;DHT22;10301;50.832;4.080;2024-03-02T10:28:00;11.40;54.60
20284;DHT22;10301;50.832;4.080;2024-03-02T10:30:27;11.50;44.20
20284;DHT22;10301;50.832;4.080;2024-03-02T10:32:54;11.50;38.50
20284;DHT22;10301;50.832;4.080;2024-03-02T10:35:23;11.70;43.90
20284;DHT22;10301;50.832;4.080;2024-03-02T10:37:49;11.80;42.70
20284;DHT22;10301;50.832;4.080;2024-03-02T10:40:16;12.00;33.90
20284;DHT22;10301;50.832;4.080;2024-03-02T10:42:42;12.30;29.80
20284;DHT22;10301;50.832;4.080;2024-03-02T10:45:12;12.20;18.70
20284;DHT22;10301;50.832;4.080;2024-03-02T10:47:40;12.50;21.40
20284;DHT22;10301;50.832;4.080;2024-03-02T10:50:07;12.90;12.80
20284;DHT22;10301;50.832;4.080;2024-03-02T10:52:36;12.60;9.10
20284;DHT22;10301;50.832;4.080;2024-03-02T10:55:03;12.50;12.50
20284;DHT22;10301;50.832;4.080;2024-03-02T10:57:52;12.50;17.80
20284;DHT22;10301;50.832;4.080;2024-03-02T11:00:24;12.60;18.40
20284;DHT22;10301;50.832;4.080;2024-03-02T11:03:05;12.90;8.20
20284;DHT22;10301;50.832;4.080;2024-03-02T11:05:39;13.00;1.00
20284;DHT22;10301;50.832;4.080;2024-03-02T11:08:12;12.70;8.60
20284;DHT22;10301;50.832;4.080;2024-03-02T11:10:49;12.80;1.00
20284;DHT22;10301;50.832;4.080;2024-03-02T11:13:22;12.80;1.00
20284;DHT22;10301;50.832;4.080;2024-03-02T11:15:52;12.70;1.00
20284;DHT22;10301;50.832;4.080;2024-03-02T11:18:20;12.80;1.00
20284;DHT22;10301;50.832;4.080;2024-03-02T11:20:46;12.80;1.00
20284;DHT22;10301;50.832;4.080;2024-03-02T11:23:12;12.90;1.00
20284;DHT22;10301;50.832;4.080;2024-03-02T11:25:38;13.10;1.00
20284;DHT22;10301;50.832;4.080;2024-03-02T11:28:06;13.20;1.00
20284;DHT22;10301;50.832;4.080;2024-03-02T11:32:58;13.10;1.00
20284;DHT22;10301;50.832;4.080;2024-03-02T11:35:28;13.20;1.00
20284;DHT22;10301;50.832;4.080;2024-03-02T11:37:54;13.10;1.00
20284;DHT22;10301;50.832;4.080;2024-03-02T11:40:24;12.90;1.00
20284;DHT22;10301;50.832;4.080;2024-03-02T11:42:50;12.70;1.00
20284;DHT22;10301;50.832;4.080;2024-03-02T11:45:29;12.90;1.00
20284;DHT22;10301;50.832;4.080;2024-03-02T11:47:57;12.50;1.00
20284;DHT22;10301;50.832;4.080;2024-03-02T11:50:39;12.40;1.00
20284;DHT22;10301;50.832;4.080;2024-03-02T11:53:06;12.60;1.00
20284;DHT22;10301;50.832;4.080;2024-03-02T11:55:35;12.70;1.00
20284;DHT22;10301;50.832;4.080;2024-03-02T11:58:05;13.10;1.00
20284;DHT22;10301;50.832;4.080;2024-03-02T12:00:31;13.30;1.00
20284;DHT22;10301;50.832;4.080;2024-03-02T12:05:27;13.00;1.00
20284;DHT22;10301;50.832;4.080;2024-03-02T12:07:57;13.10;1.00
20284;DHT22;10301;50.832;4.080;2024-03-02T12:10:23;12.90;1.00
20284;DHT22;10301;50.832;4.080;2024-03-02T12:13:04;12.90;1.00
20284;DHT22;10301;50.832;4.080;2024-03-02T12:15:36;12.60;1.00
20284;DHT22;10301;50.832;4.080;2024-03-02T12:18:05;12.30;1.00
20284;DHT22;10301;50.832;4.080;2024-03-02T12:20:32;12.50;1.00
20284;DHT22;10301;50.832;4.080;2024-03-02T12:23:00;12.70;1.00
20284;DHT22;10301;50.832;4.080;2024-03-02T12:25:26;12.80;1.00
20284;DHT22;10301;50.832;4.080;2024-03-02T12:27:57;12.90;1.00
20284;DHT22;10301;50.832;4.080;2024-03-02T12:30:23;12.70;1.00
20284;DHT22;10301;50.832;4.080;2024-03-02T12:32:49;12.90;1.00
20284;DHT22;10301;50.832;4.080;2024-03-02T12:35:15;13.00;1.00
20284;DHT22;10301;50.832;4.080;2024-03-02T12:37:45;13.00;1.00
20284;DHT22;10301;50.832;4.080;2024-03-02T12:40:12;13.00;1.00
20284;DHT22;10301;50.832;4.080;2024-03-02T12:42:40;12.70;1.00
20284;DHT22;10301;50.832;4.080;2024-03-02T12:45:07;12.70;1.00
20284;DHT22;10301;50.832;4.080;2024-03-02T12:47:37;12.60;1.00
20284;DHT22;10301;50.832;4.080;2024-03-02T12:50:03;12.30;1.00
20284;DHT22;10301;50.832;4.080;2024-03-02T12:52:30;12.30;1.00
20284;DHT22;10301;50.832;4.080;2024-03-02T12:55:01;12.60;1.00
20284;DHT22;10301;50.832;4.080;2024-03-02T12:57:29;12.50;1.00
20284;DHT22;10301;50.832;4.080;2024-03-02T13:00:03;12.40;1.00
20284;DHT22;10301;50.832;4.080;2024-03-02T13:02:36;12.40;1.00
20284;DHT22;10301;50.832;4.080;2024-03-02T13:05:06;12.60;1.00
20284;DHT22;10301;50.832;4.080;2024-03-02T13:07:36;12.80;1.00
20284;DHT22;10301;50.832;4.080;2024-03-02T13:10:02;12.90;1.00
20284;DHT22;10301;50.832;4.080;2024-03-02T13:12:30;13.00;1.00
20284;DHT22;10301;50.832;4.080;2024-03-02T13:14:58;13.00;1.00
20284;DHT22;10301;50.832;4.080;2024-03-02T13:17:24;13.40;1.00
20284;DHT22;10301;50.832;4.080;2024-03-02T13:19:56;13.60;1.00
20284;DHT22;10301;50.832;4.080;2024-03-02T13:22:22;13.60;1.00
20284;DHT22;10301;50.832;4.080;2024-03-02T13:24:49;13.30;1.00
20284;DHT22;10301;50.832;4.080;2024-03-02T13:27:15;13.10;1.00
20284;DHT22;10301;50.832;4.080;2024-03-02T13:29:42;13.00;1.00
20284;DHT22;10301;50.832;4.080;2024-03-02T13:32:08;13.10;1.00
20284;DHT22;10301;50.832;4.080;2024-03-02T13:34:35;13.30;1.00
20284;DHT22;10301;50.832;4.080;2024-03-02T13:37:01;13.10;1.00
20284;DHT22;10301;50.832;4.080;2024-03-02T13:39:27;12.90;1.00
20284;DHT22;10301;50.832;4.080;2024-03-02T13:41:56;13.20;1.00
20284;DHT22;10301;50.832;4.080;2024-03-02T13:44:29;13.30;1.00
20284;DHT22;10301;50.832;4.080;2024-03-02T13:46:54;13.50;1.00
20284;DHT22;10301;50.832;4.080;2024-03-02T13:49:20;13.60;1.00
20284;DHT22;10301;50.832;4.080;2024-03-02T13:51:45;13.40;1.00
20284;DHT22;10301;50.832;4.080;2024-03-02T13:54:11;13.40;1.00
20284;DHT22;10301;50.832;4.080;2024-03-02T13:56:37;13.30;1.00
20284;DHT22;10301;50.832;4.080;2024-03-02T13:59:04;13.20;1.00
20284;DHT22;10301;50.832;4.080;2024-03-02T14:01:31;13.10;1.00
20284;DHT22;10301;50.832;4.080;2024-03-02T14:03:58;13.20;1.00
20284;DHT22;10301;50.832;4.080;2024-03-02T14:06:24;13.20;1.00
20284;DHT22;10301;50.832;4.080;2024-03-02T14:08:52;13.40;1.00
20284;DHT22;10301;50.832;4.080;2024-03-02T14:11:18;13.30;1.00
20284;DHT22;10301;50.832;4.080;2024-03-02T14:13:44;13.40;1.00
20284;DHT22;10301;50.832;4.080;2024-03-02T14:16:15;13.50;1.00
20284;DHT22;10301;50.832;4.080;2024-03-02T14:18:41;13.20;1.00
20284;DHT22;10301;50.832;4.080;2024-03-02T14:21:07;13.20;1.00
20284;DHT22;10301;50.832;4.080;2024-03-02T14:23:33;13.20;1.00
20284;DHT22;10301;50.832;4.080;2024-03-02T14:25:58;13.20;1.00
20284;DHT22;10301;50.832;4.080;2024-03-02T14:28:25;13.20;1.00
20284;DHT22;10301;50.832;4.080;2024-03-02T14:30:50;13.20;1.00
20284;DHT22;10301;50.832;4.080;2024-03-02T14:33:17;13.30;1.00
20284;DHT22;10301;50.832;4.080;2024-03-02T14:35:44;13.30;1.00
20284;DHT22;10301;50.832;4.080;2024-03-02T14:38:11;13.10;1.00
20284;DHT22;10301;50.832;4.080;2024-03-02T14:40:37;13.20;1.00
20284;DHT22;10301;50.832;4.080;2024-03-02T14:43:02;13.50;1.00
20284;DHT22;10301;50.832;4.080;2024-03-02T14:45:29;13.00;1.00
20284;DHT22;10301;50.832;4.080;2024-03-02T14:47:55;12.80;1.00
20284;DHT22;10301;50.832;4.080;2024-03-02T14:50:21;13.10;1.00
20284;DHT22;10301;50.832;4.080;2024-03-02T14:52:47;12.90;1.00
20284;DHT22;10301;50.832;4.080;2024-03-02T14:55:12;12.70;1.00
20284;DHT22;10301;50.832;4.080;2024-03-02T14:57:38;12.60;1.00
20284;DHT22;10301;50.832;4.080;2024-03-02T15:00:04;12.90;1.00
20284;DHT22;10301;50.832;4.080;2024-03-02T15:02:33;12.90;1.00
20284;DHT22;10301;50.832;4.080;2024-03-02T15:04:59;12.90;1.00
20284;DHT22;10301;50.832;4.080;2024-03-02T15:07:25;12.80;1.00
20284;DHT22;10301;50.832;4.080;2024-03-02T15:09:51;12.90;1.00
20284;DHT22;10301;50.832;4.080;2024-03-02T15:12:17;13.10;1.00
20284;DHT22;10301;50.832;4.080;2024-03-02T15:14:43;13.00;1.00
20284;DHT22;10301;50.832;4.080;2024-03-02T15:17:12;13.10;1.00
20284;DHT22;10301;50.832;4.080;2024-03-02T15:19:42;13.00;1.00
20284;DHT22;10301;50.832;4.080;2024-03-02T15:22:08;12.90;1.00
20284;DHT22;10301;50.832;4.080;2024-03-02T15:24:34;13.10;1.00
20284;DHT22;10301;50.832;4.080;2024-03-02T15:26:59;13.10;1.00
20284;DHT22;10301;50.832;4.080;2024-03-02T15:29:25;13.00;1.00
20284;DHT22;10301;50.832;4.080;2024-03-02T15:31:54;12.80;1.00
20284;DHT22;10301;50.832;4.080;2024-03-02T15:34:20;12.60;1.00
20284;DHT22;10301;50.832;4.080;2024-03-02T15:36:46;12.70;1.00
20284;DHT22;10301;50.832;4.080;2024-03-02T15:39:11;12.90;1.00
20284;DHT22;10301;50.832;4.080;2024-03-02T15:41:37;12.90;1.00
20284;DHT22;10301;50.832;4.080;2024-03-02T15:44:06;13.10;1.00
20284;DHT22;10301;50.832;4.080;2024-03-02T15:46:33;13.00;1.00
20284;DHT22;10301;50.832;4.080;2024-03-02T15:48:59;12.90;1.00
20284;DHT22;10301;50.832;4.080;2024-03-02T15:51:26;13.10;1.00
20284;DHT22;10301;50.832;4.080;2024-03-02T15:53:52;13.20;1.00
20284;DHT22;10301;50.832;4.080;2024-03-02T15:56:17;13.30;1.00